createdAt,value
2023-04-20T00:00:34.919Z,405.0000
2023-04-20T00:01:36.338Z,402.2308
2023-04-20T00:02:37.847Z,408.0000
2023-04-20T00:03:39.325Z,404.3077
2023-04-20T00:04:40.679Z,400.6154
2023-04-20T00:05:42.018Z,400.0000
2023-04-20T00:06:43.465Z,402.6923
2023-04-20T00:07:44.875Z,400.6923
2023-04-20T00:08:46.234Z,403.0769
2023-04-20T00:09:47.693Z,405.0000
2023-04-20T00:10:49.143Z,401.2308
2023-04-20T00:11:50.581Z,405.3077
2023-04-20T00:12:52.002Z,400.0769
2023-04-20T00:13:53.460Z,402.4615
2023-04-20T00:14:54.807Z,404.6923
2023-04-20T00:15:56.255Z,403.5385
2023-04-20T00:16:57.787Z,400.4615
2023-04-20T00:17:59.213Z,400.0000
2023-04-20T00:19:00.566Z,401.8462
2023-04-20T00:20:02.008Z,400.0000
2023-04-20T00:21:03.406Z,401.5385
2023-04-20T00:22:04.839Z,404.3077
2023-04-20T00:23:06.265Z,400.8462
2023-04-20T00:24:07.741Z,402.3846
2023-04-20T00:25:09.163Z,400.0000
2023-04-20T00:26:10.538Z,400.1538
2023-04-20T00:27:12.043Z,400.6154
2023-04-20T00:28:13.451Z,401.1538
2023-04-20T00:29:15.023Z,402.8462
2023-04-20T00:30:16.403Z,404.4615
2023-04-20T00:31:17.794Z,404.3846
2023-04-20T00:32:19.157Z,406.6154
2023-04-20T00:33:20.599Z,401.6154
2023-04-20T00:34:22.082Z,402.0000
2023-04-20T00:35:23.478Z,408.0769
2023-04-20T00:36:24.921Z,402.4615
2023-04-20T00:37:26.347Z,401.4615
2023-04-20T00:38:27.803Z,400.6923
2023-04-20T00:39:29.296Z,400.4615
2023-04-20T00:40:30.666Z,402.4615
2023-04-20T00:41:31.980Z,401.9231
2023-04-20T00:42:33.484Z,402.3077
2023-04-20T00:43:34.874Z,402.5385
2023-04-20T00:44:36.386Z,400.2308
2023-04-20T00:45:37.799Z,402.3846
2023-04-20T00:46:39.248Z,401.3846
2023-04-20T00:47:40.691Z,401.5385
2023-04-20T00:48:42.033Z,400.0000
2023-04-20T00:49:43.523Z,400.4615
2023-04-20T00:50:44.950Z,402.2308
2023-04-20T00:51:46.353Z,402.7692
2023-04-20T00:52:47.831Z,401.0000
2023-04-20T00:53:49.227Z,401.2308
2023-04-20T00:54:50.691Z,402.0000
2023-04-20T00:55:52.150Z,400.0000
2023-04-20T00:56:53.606Z,400.0000
2023-04-20T00:57:54.962Z,404.2308
2023-04-20T00:58:56.383Z,403.6154
2023-04-20T00:59:57.909Z,403.3846
2023-04-20T01:00:59.212Z,402.4615
2023-04-20T01:02:00.748Z,403.0000
2023-04-20T01:03:02.117Z,403.3077
2023-04-20T01:04:03.589Z,400.8462
2023-04-20T01:05:04.955Z,400.3846
2023-04-20T01:06:06.394Z,408.1538
2023-04-20T01:07:07.859Z,405.6923
2023-04-20T01:08:09.275Z,409.1538
2023-04-20T01:09:10.659Z,407.1538
2023-04-20T01:10:12.164Z,403.3077
2023-04-20T01:11:13.588Z,400.8462
2023-04-20T01:12:14.962Z,409.0769
2023-04-20T01:13:16.377Z,400.9231
2023-04-20T01:14:17.793Z,401.1538
2023-04-20T01:15:19.318Z,408.0769
2023-04-20T01:16:20.724Z,402.0000
2023-04-20T01:17:22.131Z,401.1538
2023-04-20T01:18:23.586Z,405.3077
2023-04-20T01:19:24.919Z,408.5385
2023-04-20T01:20:26.392Z,419.0769
2023-04-20T01:21:27.864Z,404.4615
2023-04-20T01:22:29.212Z,409.1538
2023-04-20T01:23:30.687Z,408.1538
2023-04-20T01:24:32.161Z,405.4615
2023-04-20T01:25:33.572Z,404.7692
2023-04-20T01:26:35.042Z,401.6154
2023-04-20T01:27:36.392Z,405.5385
2023-04-20T01:28:37.854Z,408.5385
2023-04-20T01:29:39.318Z,413.0769
2023-04-20T01:30:40.735Z,407.1538
2023-04-20T01:31:42.186Z,404.3077
2023-04-20T01:32:43.610Z,400.0000
2023-04-20T01:33:44.997Z,400.0000
2023-04-20T01:34:46.435Z,400.6923
2023-04-20T01:35:47.893Z,402.6923
2023-04-20T01:36:49.240Z,408.9231
2023-04-20T01:37:50.711Z,401.0769
2023-04-20T01:38:52.214Z,405.6154
2023-04-20T01:39:53.708Z,413.7692
2023-04-20T01:40:55.055Z,404.0000
2023-04-20T01:41:56.559Z,400.0000
2023-04-20T01:42:58.005Z,402.3846
2023-04-20T01:43:59.375Z,410.0769
2023-04-20T01:45:00.829Z,407.0000
2023-04-20T01:46:02.220Z,405.9231
2023-04-20T01:47:03.717Z,405.6154
2023-04-20T01:48:05.082Z,401.9231
2023-04-20T01:49:06.542Z,405.3846
2023-04-20T01:50:07.931Z,401.2308
2023-04-20T01:51:09.401Z,401.6154
2023-04-20T01:52:10.838Z,403.0000
2023-04-20T01:53:12.273Z,403.2308
2023-04-20T01:54:13.700Z,405.1538
2023-04-20T01:55:15.220Z,402.7692
2023-04-20T01:56:16.686Z,410.9231
2023-04-20T01:57:18.161Z,409.7692
2023-04-20T01:58:19.515Z,408.1538
2023-04-20T01:59:21.008Z,402.0769
2023-04-20T02:00:22.387Z,404.9231
2023-04-20T02:01:23.820Z,404.0769
2023-04-20T02:02:25.461Z,400.0000
2023-04-20T02:03:26.716Z,400.7692
2023-04-20T02:04:28.135Z,402.3077
2023-04-20T02:05:29.579Z,407.4615
2023-04-20T02:06:30.987Z,402.1538
2023-04-20T02:07:32.515Z,405.5385
2023-04-20T02:08:33.741Z,418.8462
2023-04-20T02:09:35.260Z,405.6923
2023-04-20T02:10:36.711Z,407.5385
2023-04-20T02:11:38.125Z,408.5385
2023-04-20T02:12:39.629Z,404.6154
2023-04-20T02:13:41.049Z,407.4615
2023-04-20T02:14:42.473Z,405.1538
2023-04-20T02:15:43.932Z,404.8462
2023-04-20T02:16:45.327Z,400.0000
2023-04-20T02:17:46.783Z,401.8462
2023-04-20T02:18:48.064Z,404.8462
2023-04-20T02:19:49.555Z,406.9231
2023-04-20T02:20:50.900Z,401.1538
2023-04-20T02:21:52.415Z,400.4615
2023-04-20T02:22:53.951Z,401.6923
2023-04-20T02:23:55.456Z,405.0000
2023-04-20T02:24:56.750Z,406.0000
2023-04-20T02:25:58.173Z,407.6154
2023-04-20T02:26:59.593Z,404.1538
2023-04-20T02:28:01.092Z,402.7692
2023-04-20T02:29:02.475Z,408.0000
2023-04-20T02:30:03.923Z,409.0000
2023-04-20T02:31:05.338Z,403.3077
2023-04-20T02:32:06.656Z,403.6923
2023-04-20T02:33:08.254Z,401.0769
2023-04-20T02:34:09.735Z,400.2308
2023-04-20T02:35:11.020Z,403.2308
2023-04-20T02:36:12.598Z,401.4615
2023-04-20T02:37:13.908Z,400.4615
2023-04-20T02:38:15.391Z,400.6923
2023-04-20T02:39:17.031Z,407.9231
2023-04-20T02:40:18.232Z,402.8462
2023-04-20T02:41:19.647Z,401.0769
2023-04-20T02:42:21.004Z,403.5385
2023-04-20T02:43:22.435Z,406.6154
2023-04-20T02:44:23.938Z,401.9231
2023-04-20T02:45:25.349Z,400.3077
2023-04-20T02:46:26.787Z,400.3077
2023-04-20T02:47:28.234Z,400.6154
2023-04-20T02:48:29.724Z,404.4615
2023-04-20T02:49:31.054Z,401.0769
2023-04-20T02:50:32.482Z,404.3077
2023-04-20T02:51:33.921Z,401.3846
2023-04-20T02:52:35.253Z,403.6154
2023-04-20T02:53:36.799Z,400.0000
2023-04-20T02:54:38.200Z,400.0000
2023-04-20T02:55:39.677Z,406.6923
2023-04-20T02:56:41.061Z,425.3846
2023-04-20T02:57:42.506Z,446.0769
2023-04-20T02:58:43.968Z,455.6154
2023-04-20T02:59:45.342Z,456.6154
2023-04-20T03:00:46.796Z,452.3077
2023-04-20T03:01:48.203Z,449.5385
2023-04-20T03:02:49.830Z,461.5385
2023-04-20T03:03:51.331Z,453.9231
2023-04-20T03:04:52.728Z,457.0769
2023-04-20T03:05:55.181Z,448.8462
2023-04-20T03:06:55.365Z,449.3077
2023-04-20T03:07:56.904Z,460.5385
2023-04-20T03:08:58.248Z,466.9231
2023-04-20T03:09:59.661Z,456.0769
2023-04-20T03:11:01.124Z,449.1538
2023-04-20T03:12:02.541Z,446.0000
2023-04-20T03:13:03.941Z,456.6923
2023-04-20T03:14:05.429Z,465.7692
2023-04-20T03:15:06.802Z,465.9231
2023-04-20T03:16:08.365Z,468.7692
2023-04-20T03:17:09.683Z,469.2308
2023-04-20T03:18:11.010Z,457.6923
2023-04-20T03:19:12.570Z,459.3077
2023-04-20T03:20:13.878Z,471.3846
2023-04-20T03:21:15.459Z,484.3077
2023-04-20T03:22:16.798Z,473.2308
2023-04-20T03:23:18.186Z,468.7692
2023-04-20T03:24:19.672Z,463.3846
2023-04-20T03:25:20.990Z,467.1538
2023-04-20T03:26:22.531Z,469.3077
2023-04-20T03:27:23.985Z,460.5385
2023-04-20T03:28:25.326Z,467.3077
2023-04-20T03:29:26.896Z,469.7692
2023-04-20T03:30:28.249Z,468.5385
2023-04-20T03:31:29.753Z,475.2308
2023-04-20T03:32:32.722Z,461.0769
2023-04-20T03:33:32.564Z,468.5385
2023-04-20T03:34:34.053Z,480.4615
2023-04-20T03:35:35.411Z,486.6923
2023-04-20T03:36:36.817Z,472.6154
2023-04-20T03:37:38.292Z,455.4615
2023-04-20T03:38:39.654Z,477.0000
2023-04-20T03:39:41.157Z,471.3077
2023-04-20T03:40:42.569Z,461.3846
2023-04-20T03:41:44.022Z,471.6923
2023-04-20T03:42:45.359Z,479.0769
2023-04-20T03:43:46.761Z,466.2308
2023-04-20T03:44:48.320Z,475.2308
2023-04-20T03:45:49.739Z,476.9231
2023-04-20T03:46:51.149Z,487.3077
2023-04-20T03:47:52.612Z,488.1538
2023-04-20T03:48:54.034Z,478.0000
2023-04-20T03:49:55.488Z,482.6923
2023-04-20T03:50:56.824Z,479.7692
2023-04-20T03:51:58.326Z,486.2308
2023-04-20T03:52:59.681Z,488.2308
2023-04-20T03:54:01.192Z,484.0769
2023-04-20T03:55:02.603Z,478.0769
2023-04-20T03:56:03.962Z,481.7692
2023-04-20T03:57:05.364Z,475.7692
2023-04-20T03:58:06.897Z,474.3077
2023-04-20T03:59:08.213Z,479.9231
2023-04-20T04:00:09.698Z,483.3077
2023-04-20T04:01:11.118Z,484.9231
2023-04-20T04:02:12.525Z,482.6923
2023-04-20T04:03:14.153Z,492.0769
2023-04-20T04:04:15.541Z,478.6923
2023-04-20T04:05:16.915Z,492.6154
2023-04-20T04:06:18.240Z,486.1538
2023-04-20T04:07:19.632Z,481.6154
2023-04-20T04:08:21.002Z,498.3077
2023-04-20T04:09:22.629Z,488.8462
2023-04-20T04:10:24.013Z,489.0769
2023-04-20T04:11:25.446Z,494.4615
2023-04-20T04:12:26.892Z,479.9231
2023-04-20T04:13:28.203Z,492.3077
2023-04-20T04:14:29.544Z,496.0000
2023-04-20T04:15:31.050Z,490.8462
2023-04-20T04:16:32.620Z,484.8462
2023-04-20T04:17:33.896Z,496.5385
2023-04-20T04:18:35.393Z,491.0769
2023-04-20T04:19:36.821Z,490.5385
2023-04-20T04:20:38.298Z,495.4615
2023-04-20T04:21:39.720Z,491.2308
2023-04-20T04:22:41.013Z,498.3846
2023-04-20T04:23:42.491Z,513.2308
2023-04-20T04:24:43.962Z,516.0000
2023-04-20T04:25:45.459Z,486.6923
2023-04-20T04:26:46.866Z,482.0769
2023-04-20T04:27:48.330Z,468.6154
2023-04-20T04:28:49.563Z,464.2308
2023-04-20T04:29:51.178Z,465.3846
2023-04-20T04:30:52.645Z,459.3077
2023-04-20T04:31:54.198Z,456.9231
2023-04-20T04:32:55.532Z,463.4615
2023-04-20T04:33:56.781Z,458.6923
2023-04-20T04:34:58.152Z,459.8462
2023-04-20T04:35:59.715Z,468.6923
2023-04-20T04:37:01.136Z,461.1538
2023-04-20T04:38:02.541Z,459.3846
2023-04-20T04:39:03.938Z,460.7692
2023-04-20T04:40:05.432Z,460.3846
2023-04-20T04:41:06.875Z,475.8462
2023-04-20T04:42:08.145Z,466.5385
2023-04-20T04:43:09.631Z,470.9231
2023-04-20T04:44:11.156Z,468.3846
2023-04-20T04:45:12.513Z,467.5385
2023-04-20T04:46:14.044Z,470.1538
2023-04-20T04:47:15.380Z,468.9231
2023-04-20T04:48:16.771Z,474.0769
2023-04-20T04:49:18.366Z,482.2308
2023-04-20T04:50:19.606Z,472.7692
2023-04-20T04:51:21.150Z,468.1538
2023-04-20T04:52:22.421Z,466.3846
2023-04-20T04:53:23.957Z,483.7692
2023-04-20T04:54:25.340Z,490.8462
2023-04-20T04:55:26.825Z,483.5385
2023-04-20T04:56:28.243Z,483.5385
2023-04-20T04:57:29.643Z,487.2308
2023-04-20T04:58:31.035Z,488.6154
2023-04-20T04:59:32.486Z,491.7692
2023-04-20T05:00:33.877Z,502.4615
2023-04-20T05:01:35.414Z,512.2308
2023-04-20T05:02:37.245Z,514.9231
2023-04-20T05:03:38.341Z,521.2308
2023-04-20T05:04:39.667Z,522.3846
2023-04-20T05:05:41.056Z,562.4615
2023-04-20T05:06:42.554Z,569.5385
2023-04-20T05:07:43.957Z,549.0000
2023-04-20T05:08:45.347Z,556.5385
2023-04-20T05:09:46.748Z,560.3077
2023-04-20T05:10:48.134Z,576.0000
2023-04-20T05:11:49.605Z,568.0769
2023-04-20T05:12:51.089Z,580.3077
2023-04-20T05:13:52.507Z,571.2308
2023-04-20T05:14:53.889Z,603.3846
2023-04-20T05:15:55.395Z,586.0769
2023-04-20T05:16:56.738Z,582.0769
2023-04-20T05:17:58.186Z,582.6154
2023-04-20T05:18:59.564Z,593.6154
2023-04-20T05:20:01.030Z,590.9231
2023-04-20T05:21:02.470Z,597.3846
2023-04-20T05:22:04.013Z,619.7692
2023-04-20T05:23:05.487Z,614.1539
2023-04-20T05:24:06.754Z,599.6154
2023-04-20T05:25:08.196Z,611.0000
2023-04-20T05:26:09.638Z,615.5385
2023-04-20T05:27:11.026Z,616.6154
2023-04-20T05:28:12.488Z,628.3846
2023-04-20T05:29:13.805Z,635.4615
2023-04-20T05:30:20.315Z,629.6923
2023-04-20T05:31:16.719Z,637.5833
2023-04-20T05:32:18.272Z,643.7692
2023-04-20T05:33:19.611Z,636.3077
2023-04-20T05:34:20.976Z,656.5385
2023-04-20T05:35:22.433Z,647.1539
2023-04-20T05:36:23.873Z,637.8461
2023-04-20T05:37:25.166Z,664.4615
2023-04-20T05:38:26.590Z,652.5385
2023-04-20T05:39:28.141Z,668.1539
2023-04-20T05:40:29.571Z,656.0769
2023-04-20T05:41:30.998Z,656.7692
2023-04-20T05:42:32.451Z,649.2308
2023-04-20T05:43:33.809Z,640.5385
2023-04-20T05:44:35.251Z,644.9231
2023-04-20T05:45:36.736Z,651.3077
2023-04-20T05:46:38.113Z,649.3077
2023-04-20T05:47:39.669Z,659.7692
2023-04-20T05:48:40.933Z,668.3077
2023-04-20T05:49:42.444Z,672.4615
2023-04-20T05:50:43.893Z,656.5385
2023-04-20T05:51:45.318Z,660.0769
2023-04-20T05:52:46.808Z,675.1539
2023-04-20T05:53:48.207Z,677.1539
2023-04-20T05:54:49.541Z,663.2308
2023-04-20T05:55:50.979Z,661.0000
2023-04-20T05:56:52.506Z,657.3077
2023-04-20T05:57:53.911Z,677.8461
2023-04-20T05:58:55.399Z,672.4615
2023-04-20T05:59:56.815Z,665.2308
2023-04-20T06:00:58.198Z,662.5385
2023-04-20T06:01:59.728Z,656.6154
2023-04-20T06:03:01.309Z,691.3077
2023-04-20T06:04:02.879Z,687.8461
2023-04-20T06:05:03.928Z,691.0000
2023-04-20T06:06:05.415Z,653.3077
2023-04-20T06:07:06.805Z,658.8461
2023-04-20T06:08:08.259Z,667.7692
2023-04-20T06:09:09.696Z,686.8461
2023-04-20T06:10:11.113Z,711.6923
2023-04-20T06:11:12.469Z,698.0000
2023-04-20T06:12:13.945Z,693.0000
2023-04-20T06:13:15.412Z,675.0000
2023-04-20T06:14:17.273Z,663.5385
2023-04-20T06:15:18.218Z,698.1539
2023-04-20T06:16:19.688Z,706.4615
2023-04-20T06:17:21.091Z,703.3846
2023-04-20T06:18:22.594Z,690.0000
2023-04-20T06:19:23.994Z,673.0000
2023-04-20T06:20:25.409Z,662.7692
2023-04-20T06:21:26.837Z,704.1539
2023-04-20T06:22:28.288Z,706.7692
2023-04-20T06:23:29.630Z,721.3077
2023-04-20T06:24:31.039Z,697.3077
2023-04-20T06:25:32.492Z,681.7692
2023-04-20T06:26:33.850Z,679.4615
2023-04-20T06:27:35.376Z,699.6154
2023-04-20T06:28:36.844Z,712.8461
2023-04-20T06:29:38.319Z,711.9231
2023-04-20T06:30:39.568Z,696.7692
2023-04-20T06:31:41.137Z,678.9231
2023-04-20T06:32:42.552Z,657.3846
2023-04-20T06:33:43.925Z,708.0769
2023-04-20T06:34:45.413Z,712.6154
2023-04-20T06:35:46.777Z,719.4615
2023-04-20T06:36:48.198Z,694.8461
2023-04-20T06:37:49.665Z,684.8461
2023-04-20T06:38:51.038Z,663.6923
2023-04-20T06:39:52.559Z,696.6923
2023-04-20T06:40:53.956Z,720.6154
2023-04-20T06:41:55.345Z,718.2308
2023-04-20T06:42:56.702Z,703.8461
2023-04-20T06:43:58.241Z,694.6923
2023-04-20T06:44:59.636Z,682.1539
2023-04-20T06:46:01.085Z,706.6923
2023-04-20T06:47:02.635Z,726.3077
2023-04-20T06:48:03.954Z,705.6154
2023-04-20T06:49:05.356Z,703.3846
2023-04-20T06:50:06.854Z,691.1539
2023-04-20T06:51:08.247Z,680.4615
2023-04-20T06:52:09.618Z,715.8461
2023-04-20T06:53:11.073Z,734.5385
2023-04-20T06:54:12.524Z,695.8461
2023-04-20T06:55:13.891Z,690.9231
2023-04-20T06:56:15.263Z,702.6154
2023-04-20T06:57:16.768Z,697.8461
2023-04-20T06:58:18.168Z,722.6923
2023-04-20T06:59:19.894Z,737.0000
2023-04-20T07:00:21.094Z,722.3846
2023-04-20T07:01:22.635Z,709.3846
2023-04-20T07:02:24.031Z,674.5385
2023-04-20T07:03:25.578Z,663.6154
2023-04-20T07:04:26.817Z,718.5385
2023-04-20T07:05:28.231Z,739.8461
2023-04-20T07:06:29.570Z,702.8461
2023-04-20T07:07:31.057Z,692.9231
2023-04-20T07:08:32.449Z,688.1539
2023-04-20T07:09:33.987Z,684.3846
2023-04-20T07:10:35.362Z,726.5385
2023-04-20T07:11:36.759Z,729.5385
2023-04-20T07:12:38.540Z,709.0769
2023-04-20T07:13:39.672Z,707.6154
2023-04-20T07:14:41.111Z,673.6154
2023-04-20T07:15:42.526Z,712.0000
2023-04-20T07:16:43.899Z,731.1539
2023-04-20T07:17:45.438Z,736.8461
2023-04-20T07:18:46.850Z,710.8461
2023-04-20T07:19:48.234Z,712.5385
2023-04-20T07:20:49.658Z,696.2308
2023-04-20T07:21:51.061Z,711.3077
2023-04-20T07:22:52.497Z,737.9231
2023-04-20T07:23:53.903Z,737.0769
2023-04-20T07:24:55.404Z,716.8461
2023-04-20T07:25:56.845Z,714.4615
2023-04-20T07:26:58.171Z,672.4615
2023-04-20T07:27:59.709Z,717.6923
2023-04-20T07:29:01.081Z,746.5385
2023-04-20T07:30:02.528Z,742.3077
2023-04-20T07:31:03.887Z,709.1539
2023-04-20T07:32:05.385Z,698.9231
2023-04-20T07:33:06.805Z,691.4615
2023-04-20T07:34:08.246Z,731.9231
2023-04-20T07:35:09.703Z,754.4615
2023-04-20T07:36:11.040Z,724.4615
2023-04-20T07:37:12.524Z,706.0769
2023-04-20T07:38:13.982Z,685.1539
2023-04-20T07:39:15.697Z,699.4615
2023-04-20T07:40:16.848Z,743.6923
2023-04-20T07:41:18.323Z,750.1539
2023-04-20T07:42:19.644Z,711.6154
2023-04-20T07:43:21.125Z,712.6154
2023-04-20T07:44:22.503Z,667.3077
2023-04-20T07:45:24.014Z,720.1539
2023-04-20T07:46:25.425Z,753.1539
2023-04-20T07:47:26.855Z,742.0000
2023-04-20T07:48:28.267Z,728.0769
2023-04-20T07:49:29.720Z,708.5385
2023-04-20T07:50:31.219Z,673.9231
2023-04-20T07:51:32.656Z,743.3846
2023-04-20T07:52:33.896Z,764.8461
2023-04-20T07:53:35.455Z,742.6923
2023-04-20T07:54:36.855Z,728.8461
2023-04-20T07:55:38.278Z,706.6923
2023-04-20T07:56:39.749Z,700.9231
2023-04-20T07:57:41.086Z,735.9231
2023-04-20T07:58:42.510Z,756.6154
2023-04-20T07:59:43.995Z,736.7692
2023-04-20T08:00:45.398Z,726.9231
2023-04-20T08:01:46.840Z,708.7692
2023-04-20T08:02:48.307Z,694.1539
2023-04-20T08:03:49.850Z,742.1539
2023-04-20T08:04:51.396Z,760.3846
2023-04-20T08:05:52.563Z,742.5385
2023-04-20T08:06:53.944Z,729.1539
2023-04-20T08:07:55.315Z,708.7692
2023-04-20T08:08:56.794Z,729.5385
2023-04-20T08:09:58.197Z,758.3846
2023-04-20T08:10:59.685Z,744.1539
2023-04-20T08:12:01.135Z,731.9231
2023-04-20T08:13:02.545Z,731.8461
2023-04-20T08:14:04.037Z,720.6154
2023-04-20T08:15:05.360Z,753.0000
2023-04-20T08:16:07.562Z,758.6923
2023-04-20T08:17:08.192Z,742.6923
2023-04-20T08:18:09.624Z,732.4615
2023-04-20T08:19:11.020Z,715.0000
2023-04-20T08:20:12.476Z,701.2308
2023-04-20T08:21:14.014Z,767.3077
2023-04-20T08:22:15.406Z,762.4615
2023-04-20T08:23:16.730Z,740.6154
2023-04-20T08:24:18.480Z,743.6154
2023-04-20T08:25:19.546Z,714.6923
2023-04-20T08:26:21.157Z,734.2308
2023-04-20T08:27:22.484Z,768.3846
2023-04-20T08:28:33.426Z,761.6923
2023-04-20T08:29:25.289Z,746.1667
2023-04-20T08:30:26.740Z,739.9231
2023-04-20T08:31:28.292Z,742.3846
2023-04-20T08:32:29.686Z,759.4615
2023-04-20T08:33:31.019Z,778.8461
2023-04-20T08:34:32.450Z,752.7692
2023-04-20T08:35:33.866Z,745.9231
2023-04-20T08:36:35.267Z,723.8461
2023-04-20T08:37:36.768Z,741.4615
2023-04-20T08:38:38.124Z,781.0769
2023-04-20T08:39:39.636Z,768.0769
2023-04-20T08:40:40.936Z,747.1539
2023-04-20T08:41:42.457Z,748.8461
2023-04-20T08:42:43.856Z,751.7692
2023-04-20T08:43:45.298Z,767.3077
2023-04-20T08:44:46.753Z,789.3846
2023-04-20T08:45:48.122Z,754.8461
2023-04-20T08:46:49.603Z,754.8461
2023-04-20T08:47:51.050Z,751.2308
2023-04-20T08:48:52.248Z,760.2308
2023-04-20T08:49:53.786Z,785.6154
2023-04-20T08:50:55.269Z,774.6923
2023-04-20T08:51:56.685Z,760.3846
2023-04-20T08:52:58.089Z,743.6154
2023-04-20T08:53:59.537Z,723.8461
2023-04-20T08:55:00.848Z,756.4615
2023-04-20T08:56:02.399Z,784.8461
2023-04-20T08:57:03.868Z,755.2308
2023-04-20T08:58:05.279Z,751.7692
2023-04-20T08:59:06.602Z,734.7692
2023-04-20T09:00:08.070Z,751.4615
2023-04-20T09:01:09.617Z,782.8461
2023-04-20T09:02:11.136Z,796.3077
2023-04-20T09:03:12.569Z,756.4615
2023-04-20T09:04:14.069Z,742.0000
2023-04-20T09:05:15.215Z,737.4615
2023-04-20T09:06:16.621Z,723.6923
2023-04-20T09:07:18.041Z,777.0769
2023-04-20T09:08:19.524Z,779.6154
2023-04-20T09:09:20.900Z,725.1539
2023-04-20T09:10:22.397Z,714.3846
2023-04-20T09:11:23.731Z,713.0769
2023-04-20T09:12:25.313Z,742.3077
2023-04-20T09:13:26.696Z,769.0769
2023-04-20T09:14:28.052Z,746.6154
2023-04-20T09:15:29.888Z,713.6154
2023-04-20T09:16:30.934Z,686.6154
2023-04-20T09:17:32.411Z,718.5385
2023-04-20T09:18:33.811Z,740.0000
2023-04-20T09:19:35.182Z,753.9231
2023-04-20T09:20:36.610Z,726.6923
2023-04-20T09:21:38.015Z,701.8461
2023-04-20T09:22:39.516Z,669.3846
2023-04-20T09:23:40.896Z,707.0769
2023-04-20T09:24:42.237Z,728.2308
2023-04-20T09:25:43.756Z,760.0000
2023-04-20T09:26:45.257Z,704.9231
2023-04-20T09:27:46.599Z,679.8461
